EZY8377 EDDH-LOWW
Flight info
| Callsign | EZY8377 |
|---|---|
| Flight time | 1h 11m |
| Altitude | 37000 |
| Route | RAMAR6G RAMAR Z998 RATMO DCT HDO DCT EVIKU DCT BITSI DCT MIKOV MIKOV8W |
| Aircraft | A20N/M-SDE2E3FGHIRWXY/LB1 |
Departure
| Time | 2026-04-25 16:57 |
|---|---|
| Airport | Hamburg Helmut Schmidt Airport (EDDH) |
Arrival
| Time | 2026-04-25 18:08 |
|---|---|
| Airport | Vienna International Airport (LOWW) |
| Time | Latitude | Longitude | Altitude | Speed | Heading |
|---|---|---|---|---|---|
| 2026-04-25 16:36 | 53.62796 | 9.99352 | 46 ft | 0 kts | 242° |
| 2026-04-25 16:49 | 53.62803 | 9.99375 | 46 ft | 4 kts | 239° |
| 2026-04-25 16:49 | 53.62818 | 9.99412 | 45 ft | 4 kts | 230° |
| 2026-04-25 16:49 | 53.62837 | 9.99443 | 44 ft | 4 kts | 201° |
| 2026-04-25 16:50 | 53.62855 | 9.99446 | 44 ft | 1 kts | 153° |
| 2026-04-25 16:50 | 53.62858 | 9.99443 | 44 ft | 0 kts | 153° |
| 2026-04-25 16:52 | 53.62848 | 9.99451 | 45 ft | 6 kts | 153° |
| 2026-04-25 16:52 | 53.62786 | 9.99505 | 45 ft | 13 kts | 152° |
| 2026-04-25 16:53 | 53.62637 | 9.99655 | 46 ft | 10 kts | 121° |
| 2026-04-25 16:53 | 53.62636 | 9.99724 | 46 ft | 0 kts | 80° |
| 2026-04-25 16:55 | 53.62640 | 9.99769 | 46 ft | 10 kts | 80° |
| 2026-04-25 16:55 | 53.62697 | 9.99883 | 43 ft | 15 kts | 14° |
| 2026-04-25 16:55 | 53.62757 | 9.99837 | 45 ft | 10 kts | 332° |
| 2026-04-25 16:56 | 53.62961 | 9.99651 | 44 ft | 64 kts | 332° |
| 2026-04-25 16:56 | 53.63530 | 9.99174 | 47 ft | 116 kts | 333° |
| 2026-04-25 16:56 | 53.64369 | 9.98448 | 55 ft | 153 kts | 333° |
| 2026-04-25 16:56 | 53.65351 | 9.97665 | 493 ft | 153 kts | 331° |
| 2026-04-25 16:57 | 53.66303 | 9.96957 | 1034 ft | 151 kts | 332° |
| 2026-04-25 16:57 | 53.66957 | 9.96482 | 1439 ft | 151 kts | 332° |
| 2026-04-25 16:57 | 53.68227 | 9.95573 | 2201 ft | 150 kts | 333° |
| 2026-04-25 16:57 | 53.69248 | 9.94989 | 2679 ft | 158 kts | 345° |
| 2026-04-25 16:58 | 53.70354 | 9.94812 | 3277 ft | 162 kts | 353° |
| 2026-04-25 16:58 | 53.71539 | 9.94722 | 3682 ft | 180 kts | 354° |
| 2026-04-25 16:58 | 53.72861 | 9.94948 | 4116 ft | 204 kts | 16° |
| 2026-04-25 16:58 | 53.74027 | 9.96454 | 4824 ft | 221 kts | 50° |
| 2026-04-25 16:59 | 53.74739 | 9.98811 | 5654 ft | 232 kts | 58° |
| 2026-04-25 16:59 | 53.75466 | 10.01378 | 6159 ft | 253 kts | 58° |
| 2026-04-25 16:59 | 53.76252 | 10.04121 | 6708 ft | 270 kts | 58° |
| 2026-04-25 16:59 | 53.77081 | 10.07019 | 7477 ft | 277 kts | 58° |
| 2026-04-25 17:00 | 53.77924 | 10.09968 | 8350 ft | 281 kts | 58° |
| 2026-04-25 17:00 | 53.78783 | 10.12972 | 9207 ft | 286 kts | 58° |
| 2026-04-25 17:00 | 53.79657 | 10.16021 | 10044 ft | 291 kts | 58° |
| 2026-04-25 17:00 | 53.80563 | 10.19169 | 10564 ft | 308 kts | 58° |
| 2026-04-25 17:01 | 53.81540 | 10.22548 | 10821 ft | 332 kts | 59° |
| 2026-04-25 17:01 | 53.82576 | 10.26152 | 11250 ft | 346 kts | 59° |
| 2026-04-25 17:01 | 53.83625 | 10.29848 | 11975 ft | 351 kts | 60° |
| 2026-04-25 17:01 | 53.84353 | 10.33665 | 12664 ft | 364 kts | 77° |
| 2026-04-25 17:02 | 53.84400 | 10.38002 | 13393 ft | 376 kts | 95° |
| 2026-04-25 17:02 | 53.83845 | 10.42371 | 14107 ft | 382 kts | 101° |
| 2026-04-25 17:02 | 53.83231 | 10.46771 | 14804 ft | 385 kts | 102° |
| 2026-04-25 17:02 | 53.82603 | 10.51191 | 15498 ft | 389 kts | 102° |
| 2026-04-25 17:03 | 53.81972 | 10.55670 | 16185 ft | 392 kts | 102° |
| 2026-04-25 17:03 | 53.81346 | 10.60174 | 16779 ft | 396 kts | 101° |
| 2026-04-25 17:03 | 53.80716 | 10.64726 | 16971 ft | 398 kts | 102° |
| 2026-04-25 17:03 | 53.79868 | 10.69196 | 17022 ft | 400 kts | 111° |
| 2026-04-25 17:04 | 53.78664 | 10.73367 | 17020 ft | 400 kts | 120° |
| 2026-04-25 17:04 | 53.77185 | 10.77357 | 17028 ft | 400 kts | 122° |
| 2026-04-25 17:04 | 53.75700 | 10.81344 | 17023 ft | 401 kts | 122° |
| 2026-04-25 17:04 | 53.74246 | 10.85264 | 17030 ft | 401 kts | 121° |
| 2026-04-25 17:05 | 53.72767 | 10.89250 | 17011 ft | 401 kts | 123° |
| 2026-04-25 17:05 | 53.68935 | 10.96014 | 17026 ft | 402 kts | 146° |
| 2026-04-25 17:05 | 53.66561 | 10.98480 | 17010 ft | 401 kts | 150° |
| 2026-04-25 17:06 | 53.64184 | 11.00887 | 17013 ft | 400 kts | 150° |
| 2026-04-25 17:06 | 53.61790 | 11.03330 | 17035 ft | 401 kts | 150° |
| 2026-04-25 17:06 | 53.59392 | 11.05781 | 17228 ft | 405 kts | 150° |
| 2026-04-25 17:06 | 53.56979 | 11.08243 | 17993 ft | 405 kts | 150° |
| 2026-04-25 17:07 | 53.54562 | 11.10706 | 18627 ft | 408 kts | 150° |
| 2026-04-25 17:07 | 53.52272 | 11.13575 | 19157 ft | 414 kts | 137° |
| 2026-04-25 17:07 | 53.50247 | 11.17067 | 19664 ft | 420 kts | 134° |
| 2026-04-25 17:07 | 53.48224 | 11.20642 | 20202 ft | 424 kts | 134° |
| 2026-04-25 17:08 | 53.46187 | 11.24253 | 20739 ft | 428 kts | 134° |
| 2026-04-25 17:08 | 53.44139 | 11.27896 | 21268 ft | 432 kts | 134° |
| 2026-04-25 17:08 | 53.42068 | 11.31590 | 21767 ft | 437 kts | 134° |
| 2026-04-25 17:08 | 53.39976 | 11.35327 | 22270 ft | 441 kts | 134° |
| 2026-04-25 17:09 | 53.37871 | 11.39099 | 22799 ft | 445 kts | 134° |
| 2026-04-25 17:09 | 53.35746 | 11.42912 | 23305 ft | 449 kts | 134° |
| 2026-04-25 17:09 | 53.33607 | 11.46758 | 23750 ft | 454 kts | 134° |
| 2026-04-25 17:09 | 53.31482 | 11.50581 | 24217 ft | 456 kts | 134° |
| 2026-04-25 17:10 | 53.30049 | 11.53164 | 24537 ft | 457 kts | 134° |
| 2026-04-25 17:10 | 53.27171 | 11.58351 | 25116 ft | 461 kts | 134° |
| 2026-04-25 17:10 | 53.24987 | 11.62290 | 25528 ft | 464 kts | 134° |
| 2026-04-25 17:10 | 53.22786 | 11.66257 | 25956 ft | 467 kts | 134° |
| 2026-04-25 17:11 | 53.20572 | 11.70250 | 26373 ft | 469 kts | 134° |
| 2026-04-25 17:11 | 53.18345 | 11.74269 | 26780 ft | 472 kts | 134° |
| 2026-04-25 17:11 | 53.16104 | 11.78310 | 27144 ft | 476 kts | 134° |
| 2026-04-25 17:11 | 53.13857 | 11.82360 | 27538 ft | 478 kts | 134° |
| 2026-04-25 17:12 | 53.11592 | 11.86444 | 27925 ft | 480 kts | 134° |
| 2026-04-25 17:12 | 53.09320 | 11.90539 | 28295 ft | 483 kts | 134° |
| 2026-04-25 17:12 | 53.07034 | 11.94656 | 28612 ft | 486 kts | 134° |
| 2026-04-25 17:12 | 53.04735 | 11.98792 | 28960 ft | 488 kts | 134° |
| 2026-04-25 17:13 | 53.02421 | 12.02954 | 29309 ft | 490 kts | 134° |
| 2026-04-25 17:13 | 53.01674 | 12.04297 | 29411 ft | 491 kts | 134° |
| 2026-04-25 17:13 | 52.97801 | 12.11255 | 29923 ft | 496 kts | 134° |
| 2026-04-25 17:13 | 52.95456 | 12.15464 | 30227 ft | 498 kts | 134° |
| 2026-04-25 17:14 | 52.93095 | 12.19702 | 30504 ft | 500 kts | 134° |
| 2026-04-25 17:14 | 52.90735 | 12.23938 | 30786 ft | 502 kts | 134° |
| 2026-04-25 17:14 | 52.88242 | 12.27992 | 31023 ft | 502 kts | 144° |
| 2026-04-25 17:14 | 52.85415 | 12.31338 | 31354 ft | 500 kts | 149° |
| 2026-04-25 17:15 | 52.82529 | 12.34556 | 31714 ft | 499 kts | 149° |
| 2026-04-25 17:15 | 52.79644 | 12.37762 | 32068 ft | 499 kts | 149° |
| 2026-04-25 17:15 | 52.76781 | 12.40951 | 32388 ft | 499 kts | 149° |
| 2026-04-25 17:15 | 52.73910 | 12.44156 | 32747 ft | 499 kts | 149° |
| 2026-04-25 17:16 | 52.71035 | 12.47366 | 33087 ft | 498 kts | 149° |
| 2026-04-25 17:16 | 52.68167 | 12.50565 | 33423 ft | 498 kts | 149° |
| 2026-04-25 17:16 | 52.65291 | 12.53768 | 33721 ft | 498 kts | 149° |
| 2026-04-25 17:16 | 52.62423 | 12.56956 | 34036 ft | 497 kts | 149° |
| 2026-04-25 17:17 | 52.59557 | 12.60137 | 34309 ft | 497 kts | 149° |
| 2026-04-25 17:17 | 52.56723 | 12.63277 | 34603 ft | 496 kts | 149° |
| 2026-04-25 17:17 | 52.53864 | 12.66440 | 34841 ft | 495 kts | 149° |
| 2026-04-25 17:17 | 52.51014 | 12.69588 | 35097 ft | 495 kts | 149° |
| 2026-04-25 17:18 | 52.48156 | 12.72740 | 35365 ft | 494 kts | 149° |
| 2026-04-25 17:18 | 52.45311 | 12.75871 | 35601 ft | 493 kts | 149° |
| 2026-04-25 17:18 | 52.42454 | 12.79011 | 35818 ft | 493 kts | 149° |
| 2026-04-25 17:18 | 52.39600 | 12.82144 | 36042 ft | 493 kts | 149° |
| 2026-04-25 17:19 | 52.36744 | 12.85274 | 36271 ft | 492 kts | 149° |
| 2026-04-25 17:19 | 52.33900 | 12.88386 | 36496 ft | 491 kts | 149° |
| 2026-04-25 17:19 | 52.31091 | 12.91453 | 36685 ft | 491 kts | 149° |
| 2026-04-25 17:19 | 52.28242 | 12.94560 | 36883 ft | 491 kts | 149° |
| 2026-04-25 17:20 | 52.22558 | 13.00745 | 36984 ft | 490 kts | 149° |
| 2026-04-25 17:20 | 52.16879 | 13.06903 | 36975 ft | 490 kts | 149° |
| 2026-04-25 17:21 | 52.11210 | 13.13032 | 36984 ft | 490 kts | 149° |
| 2026-04-25 17:21 | 52.05562 | 13.19120 | 36988 ft | 490 kts | 149° |
| 2026-04-25 17:22 | 52.01763 | 13.23204 | 36987 ft | 490 kts | 149° |
| 2026-04-25 17:22 | 51.94195 | 13.31315 | 36978 ft | 490 kts | 149° |
| 2026-04-25 17:23 | 51.88505 | 13.37392 | 36989 ft | 489 kts | 149° |
| 2026-04-25 17:23 | 51.82824 | 13.43441 | 36984 ft | 489 kts | 149° |
| 2026-04-25 17:24 | 51.77138 | 13.49476 | 36996 ft | 489 kts | 149° |
| 2026-04-25 17:24 | 51.71445 | 13.55501 | 36985 ft | 489 kts | 149° |
| 2026-04-25 17:25 | 51.65748 | 13.61511 | 36986 ft | 489 kts | 149° |
| 2026-04-25 17:25 | 51.61003 | 13.66503 | 36984 ft | 489 kts | 149° |
| 2026-04-25 17:26 | 51.55301 | 13.72484 | 36986 ft | 489 kts | 150° |
| 2026-04-25 17:26 | 51.49593 | 13.78455 | 36981 ft | 489 kts | 150° |
| 2026-04-25 17:27 | 51.43890 | 13.84401 | 36982 ft | 489 kts | 150° |
| 2026-04-25 17:27 | 51.39141 | 13.89340 | 36982 ft | 489 kts | 150° |
| 2026-04-25 17:28 | 51.32499 | 13.96226 | 36989 ft | 489 kts | 150° |
| 2026-04-25 17:28 | 51.26782 | 14.02133 | 36999 ft | 490 kts | 150° |
| 2026-04-25 17:29 | 51.21053 | 14.08036 | 36995 ft | 490 kts | 150° |
| 2026-04-25 17:29 | 51.15320 | 14.13925 | 36994 ft | 490 kts | 150° |
| 2026-04-25 17:30 | 51.09590 | 14.19793 | 36995 ft | 490 kts | 150° |
| 2026-04-25 17:30 | 51.03848 | 14.25656 | 36990 ft | 490 kts | 150° |
| 2026-04-25 17:31 | 50.98101 | 14.31510 | 37114 ft | 492 kts | 150° |
| 2026-04-25 17:31 | 50.95142 | 14.34252 | 36980 ft | 491 kts | 156° |
| 2026-04-25 17:31 | 50.92102 | 14.36497 | 36978 ft | 485 kts | 162° |
| 2026-04-25 17:32 | 50.85720 | 14.39573 | 36978 ft | 477 kts | 172° |
| 2026-04-25 17:32 | 50.79225 | 14.41937 | 36978 ft | 478 kts | 172° |
| 2026-04-25 17:33 | 50.72763 | 14.44323 | 36976 ft | 477 kts | 172° |
| 2026-04-25 17:33 | 50.66294 | 14.46714 | 36978 ft | 476 kts | 172° |
| 2026-04-25 17:34 | 50.59888 | 14.49074 | 36974 ft | 475 kts | 172° |
| 2026-04-25 17:34 | 50.53462 | 14.51434 | 36975 ft | 474 kts | 172° |
| 2026-04-25 17:35 | 50.47169 | 14.54659 | 36971 ft | 482 kts | 157° |
| 2026-04-25 17:35 | 50.41662 | 14.60755 | 36958 ft | 489 kts | 137° |
| 2026-04-25 17:36 | 50.36790 | 14.68219 | 36966 ft | 489 kts | 138° |
| 2026-04-25 17:36 | 50.31898 | 14.75636 | 36968 ft | 489 kts | 138° |
| 2026-04-25 17:37 | 50.27002 | 14.83017 | 36972 ft | 490 kts | 138° |
| 2026-04-25 17:37 | 50.22077 | 14.90415 | 36974 ft | 490 kts | 138° |
| 2026-04-25 17:38 | 50.17989 | 14.96541 | 36977 ft | 491 kts | 138° |
| 2026-04-25 17:38 | 50.12222 | 15.05156 | 36983 ft | 491 kts | 139° |
| 2026-04-25 17:39 | 50.07308 | 15.12474 | 36997 ft | 492 kts | 139° |
| 2026-04-25 17:39 | 50.02354 | 15.19828 | 36985 ft | 492 kts | 139° |
| 2026-04-25 17:40 | 49.97404 | 15.27155 | 36971 ft | 490 kts | 139° |
| 2026-04-25 17:40 | 49.92469 | 15.34439 | 36977 ft | 489 kts | 139° |
| 2026-04-25 17:41 | 49.87536 | 15.41697 | 36962 ft | 488 kts | 139° |
| 2026-04-25 17:41 | 49.82635 | 15.48887 | 36976 ft | 488 kts | 139° |
| 2026-04-25 17:42 | 49.77674 | 15.56143 | 36974 ft | 487 kts | 139° |
| 2026-04-25 17:42 | 49.72779 | 15.63282 | 36974 ft | 486 kts | 139° |
| 2026-04-25 17:43 | 49.67851 | 15.70448 | 36972 ft | 486 kts | 139° |
| 2026-04-25 17:43 | 49.62922 | 15.77595 | 36971 ft | 485 kts | 139° |
| 2026-04-25 17:44 | 49.57994 | 15.84719 | 36972 ft | 485 kts | 139° |
| 2026-04-25 17:44 | 49.53102 | 15.91771 | 36968 ft | 485 kts | 139° |
| 2026-04-25 17:45 | 49.48969 | 15.97714 | 36969 ft | 484 kts | 139° |
| 2026-04-25 17:45 | 49.43243 | 16.05921 | 36960 ft | 484 kts | 140° |
| 2026-04-25 17:46 | 49.38313 | 16.12966 | 36958 ft | 484 kts | 140° |
| 2026-04-25 17:46 | 49.33348 | 16.19944 | 36959 ft | 483 kts | 143° |
| 2026-04-25 17:47 | 49.27919 | 16.25727 | 36958 ft | 477 kts | 154° |
| 2026-04-25 17:47 | 49.22026 | 16.30178 | 36960 ft | 474 kts | 158° |
| 2026-04-25 17:48 | 49.13114 | 16.36743 | 36959 ft | 474 kts | 158° |
| 2026-04-25 17:49 | 49.07157 | 16.41132 | 36939 ft | 474 kts | 158° |
| 2026-04-25 17:49 | 49.04196 | 16.43311 | 36733 ft | 471 kts | 158° |
| 2026-04-25 17:49 | 49.01249 | 16.45476 | 36214 ft | 470 kts | 158° |
| 2026-04-25 17:49 | 48.98298 | 16.47638 | 35549 ft | 470 kts | 158° |
| 2026-04-25 17:50 | 48.95346 | 16.49799 | 34846 ft | 472 kts | 158° |
| 2026-04-25 17:50 | 48.92382 | 16.51965 | 34127 ft | 473 kts | 158° |
| 2026-04-25 17:50 | 48.89413 | 16.54133 | 33362 ft | 474 kts | 158° |
| 2026-04-25 17:50 | 48.86433 | 16.56308 | 32594 ft | 474 kts | 159° |
| 2026-04-25 17:51 | 48.83458 | 16.58476 | 31824 ft | 475 kts | 159° |
| 2026-04-25 17:51 | 48.80472 | 16.60626 | 31080 ft | 474 kts | 161° |
| 2026-04-25 17:51 | 48.77392 | 16.62368 | 30322 ft | 470 kts | 168° |
| 2026-04-25 17:51 | 48.74290 | 16.63521 | 29679 ft | 462 kts | 173° |
| 2026-04-25 17:52 | 48.71157 | 16.64533 | 28923 ft | 456 kts | 173° |
| 2026-04-25 17:52 | 48.70110 | 16.64873 | 28623 ft | 454 kts | 173° |
| 2026-04-25 17:52 | 48.65028 | 16.66535 | 27189 ft | 445 kts | 173° |
| 2026-04-25 17:52 | 48.62013 | 16.67493 | 26375 ft | 438 kts | 177° |
| 2026-04-25 17:53 | 48.59020 | 16.67698 | 25559 ft | 422 kts | 191° |
| 2026-04-25 17:53 | 48.56208 | 16.66822 | 24764 ft | 407 kts | 206° |
| 2026-04-25 17:53 | 48.53729 | 16.64948 | 23987 ft | 392 kts | 220° |
| 2026-04-25 17:53 | 48.51590 | 16.62465 | 23194 ft | 388 kts | 223° |
| 2026-04-25 17:54 | 48.49448 | 16.60006 | 22564 ft | 387 kts | 218° |
| 2026-04-25 17:54 | 48.46995 | 16.58265 | 21948 ft | 394 kts | 201° |
| 2026-04-25 17:54 | 48.44266 | 16.57623 | 21337 ft | 401 kts | 185° |
| 2026-04-25 17:54 | 48.41522 | 16.58142 | 20757 ft | 407 kts | 170° |
| 2026-04-25 17:55 | 48.38757 | 16.59308 | 20203 ft | 405 kts | 168° |
| 2026-04-25 17:55 | 48.36066 | 16.60508 | 19652 ft | 402 kts | 167° |
| 2026-04-25 17:55 | 48.33385 | 16.61695 | 19122 ft | 399 kts | 168° |
| 2026-04-25 17:55 | 48.30728 | 16.62847 | 18594 ft | 396 kts | 168° |
| 2026-04-25 17:56 | 48.28086 | 16.63973 | 18064 ft | 393 kts | 168° |
| 2026-04-25 17:56 | 48.25465 | 16.65080 | 17500 ft | 390 kts | 168° |
| 2026-04-25 17:56 | 48.22868 | 16.66170 | 16943 ft | 386 kts | 168° |
| 2026-04-25 17:56 | 48.20348 | 16.67226 | 16431 ft | 383 kts | 168° |
| 2026-04-25 17:57 | 48.17769 | 16.68305 | 15897 ft | 380 kts | 168° |
| 2026-04-25 17:57 | 48.15234 | 16.69365 | 15384 ft | 377 kts | 168° |
| 2026-04-25 17:57 | 48.12717 | 16.70416 | 14879 ft | 374 kts | 168° |
| 2026-04-25 17:57 | 48.11864 | 16.70772 | 14708 ft | 373 kts | 168° |
| 2026-04-25 17:58 | 48.07733 | 16.72493 | 13901 ft | 369 kts | 168° |
| 2026-04-25 17:58 | 48.05266 | 16.73519 | 13363 ft | 365 kts | 168° |
| 2026-04-25 17:58 | 48.02827 | 16.74533 | 12581 ft | 361 kts | 168° |
| 2026-04-25 17:58 | 48.00418 | 16.75532 | 11837 ft | 357 kts | 167° |
| 2026-04-25 17:59 | 47.98029 | 16.76521 | 11127 ft | 353 kts | 167° |
| 2026-04-25 17:59 | 47.95677 | 16.77495 | 10562 ft | 345 kts | 167° |
| 2026-04-25 17:59 | 47.93451 | 16.78419 | 10367 ft | 326 kts | 167° |
| 2026-04-25 17:59 | 47.91303 | 16.79311 | 10182 ft | 308 kts | 167° |
| 2026-04-25 18:00 | 47.89275 | 16.80149 | 9768 ft | 300 kts | 168° |
| 2026-04-25 18:00 | 47.87296 | 16.80961 | 9185 ft | 297 kts | 167° |
| 2026-04-25 18:00 | 47.85307 | 16.81774 | 8609 ft | 295 kts | 167° |
| 2026-04-25 18:00 | 47.83325 | 16.82517 | 8015 ft | 291 kts | 176° |
| 2026-04-25 18:01 | 47.81354 | 16.82270 | 7436 ft | 282 kts | 202° |
| 2026-04-25 18:01 | 47.79750 | 16.80789 | 7010 ft | 265 kts | 230° |
| 2026-04-25 18:01 | 47.78850 | 16.78495 | 6560 ft | 252 kts | 259° |
| 2026-04-25 18:01 | 47.78848 | 16.75991 | 6212 ft | 239 kts | 288° |
| 2026-04-25 18:02 | 47.79668 | 16.73903 | 5665 ft | 237 kts | 314° |
| 2026-04-25 18:02 | 47.80832 | 16.72161 | 5155 ft | 237 kts | 315° |
| 2026-04-25 18:02 | 47.82070 | 16.70547 | 4673 ft | 236 kts | 327° |
| 2026-04-25 18:02 | 47.83586 | 16.69669 | 4203 ft | 236 kts | 345° |
| 2026-04-25 18:03 | 47.85185 | 16.69104 | 3884 ft | 235 kts | 345° |
| 2026-04-25 18:03 | 47.86763 | 16.68503 | 3636 ft | 232 kts | 343° |
| 2026-04-25 18:03 | 47.88309 | 16.67856 | 3337 ft | 231 kts | 342° |
| 2026-04-25 18:03 | 47.89852 | 16.67203 | 3091 ft | 227 kts | 342° |
| 2026-04-25 18:04 | 47.91334 | 16.66575 | 3034 ft | 215 kts | 341° |
| 2026-04-25 18:04 | 47.92773 | 16.65962 | 3033 ft | 220 kts | 341° |
| 2026-04-25 18:04 | 47.94216 | 16.65350 | 3021 ft | 208 kts | 342° |
| 2026-04-25 18:04 | 47.95547 | 16.64789 | 3026 ft | 191 kts | 341° |
| 2026-04-25 18:05 | 47.96810 | 16.64249 | 3016 ft | 193 kts | 340° |
| 2026-04-25 18:05 | 47.98099 | 16.63702 | 2835 ft | 191 kts | 340° |
| 2026-04-25 18:05 | 47.99356 | 16.63169 | 2551 ft | 185 kts | 339° |
| 2026-04-25 18:05 | 48.00576 | 16.62652 | 2289 ft | 178 kts | 339° |
| 2026-04-25 18:06 | 48.01735 | 16.62162 | 2051 ft | 165 kts | 338° |
| 2026-04-25 18:06 | 48.02782 | 16.61720 | 1840 ft | 148 kts | 338° |
| 2026-04-25 18:06 | 48.03714 | 16.61326 | 1658 ft | 131 kts | 336° |
| 2026-04-25 18:06 | 48.04594 | 16.60945 | 1484 ft | 132 kts | 338° |
| 2026-04-25 18:07 | 48.05480 | 16.60569 | 1307 ft | 134 kts | 339° |
| 2026-04-25 18:07 | 48.06384 | 16.60185 | 1119 ft | 133 kts | 338° |
| 2026-04-25 18:07 | 48.07264 | 16.59813 | 949 ft | 131 kts | 340° |
| 2026-04-25 18:07 | 48.08139 | 16.59439 | 784 ft | 131 kts | 342° |
| 2026-04-25 18:08 | 48.09018 | 16.59068 | 634 ft | 130 kts | 342° |
| 2026-04-25 18:08 | 48.09811 | 16.58729 | 617 ft | 95 kts | 345° |
| 2026-04-25 18:08 | 48.10253 | 16.58545 | 618 ft | 46 kts | 344° |
| 2026-04-25 18:08 | 48.10546 | 16.58423 | 615 ft | 41 kts | 345° |
| 2026-04-25 18:09 | 48.10806 | 16.58309 | 611 ft | 36 kts | 343° |
| 2026-04-25 18:09 | 48.10964 | 16.58215 | 614 ft | 20 kts | 322° |
| 2026-04-25 18:09 | 48.11045 | 16.58057 | 618 ft | 13 kts | 297° |
| 2026-04-25 18:09 | 48.11056 | 16.58024 | 609 ft | 10 kts | 295° |
| 2026-04-25 18:10 | 48.11065 | 16.57994 | 611 ft | 0 kts | 295° |
| 2026-04-25 18:10 | 48.11071 | 16.57978 | 618 ft | 7 kts | 295° |
| 2026-04-25 18:10 | 48.11109 | 16.57859 | 613 ft | 16 kts | 296° |
| 2026-04-25 18:11 | 48.11161 | 16.57700 | 619 ft | 18 kts | 296° |
| 2026-04-25 18:11 | 48.11217 | 16.57527 | 620 ft | 19 kts | 296° |
| 2026-04-25 18:11 | 48.11277 | 16.57345 | 617 ft | 20 kts | 296° |
| 2026-04-25 18:11 | 48.11339 | 16.57154 | 613 ft | 21 kts | 296° |
| 2026-04-25 18:12 | 48.11403 | 16.56956 | 615 ft | 21 kts | 296° |
| 2026-04-25 18:12 | 48.11446 | 16.56821 | 615 ft | 22 kts | 295° |
| 2026-04-25 18:12 | 48.11515 | 16.56614 | 618 ft | 22 kts | 297° |
| 2026-04-25 18:12 | 48.11607 | 16.56331 | 617 ft | 23 kts | 295° |
| 2026-04-25 18:13 | 48.11668 | 16.56140 | 613 ft | 16 kts | 295° |
| 2026-04-25 18:13 | 48.11700 | 16.56039 | 609 ft | 16 kts | 296° |
| 2026-04-25 18:13 | 48.11752 | 16.55885 | 618 ft | 17 kts | 296° |
| 2026-04-25 18:14 | 48.11856 | 16.55565 | 615 ft | 14 kts | 295° |
| 2026-04-25 18:14 | 48.11895 | 16.55453 | 613 ft | 9 kts | 318° |
| 2026-04-25 18:14 | 48.11957 | 16.55465 | 622 ft | 11 kts | 25° |
| 2026-04-25 18:14 | 48.11986 | 16.55499 | 619 ft | 0 kts | 63° |
| 2026-04-25 18:15 | 48.11990 | 16.55513 | 614 ft | 5 kts | 70° |
| 2026-04-25 18:15 | 48.11988 | 16.55554 | 609 ft | 4 kts | 101° |
| 2026-04-25 18:15 | 48.11986 | 16.55583 | 609 ft | 2 kts | 97° |
| 2026-04-25 18:15 | 48.11985 | 16.55589 | 609 ft | 0 kts | 97° |